Time;durP1;ratioP1;P1;durP2;ratioP2;P2;SDS_P1;SDS_P2;PMS_P1;PMS_P2;Temp;Humidity;BMP_temperature;BMP_pressure;BME280_temperature;BME280_humidity;BME280_pressure;Samples;Min_cycle;Max_cycle;Signal;HPM_P1;HPM_P2
2022/12/07 00:01:15;;;;;;;28.92;12.18;;;;;;;;;;5022958;28;20037;-80
2022/12/07 00:03:42;;;;;;;29.73;12.68;;;;;;;;;;5022935;28;20109;-79
2022/12/07 00:06:10;;;;;;;32.40;13.35;;;;;;;;;;5022453;28;20064;-79
2022/12/07 00:08:36;;;;;;;27.92;12.23;;;;;;;;;;5038897;28;20566;-79
2022/12/07 00:11:03;;;;;;;30.60;13.18;;;;;;;;;;5020906;28;20022;-79
2022/12/07 00:13:30;;;;;;;28.27;12.43;;;;;;;;;;5023358;28;20461;-80
2022/12/07 00:15:55;;;;;;;28.23;12.65;;;;;;;;;;5021530;28;20105;-79
2022/12/07 00:18:20;;;;;;;31.90;12.77;;;;;;;;;;5023046;28;20156;-79
2022/12/07 00:20:46;;;;;;;27.08;11.82;;;;;;;;;;5025696;28;20029;-79
2022/12/07 00:23:11;;;;;;;35.38;14.13;;;;;;;;;;5025923;28;20670;-79
2022/12/07 00:25:36;;;;;;;34.22;14.80;;;;;;;;;;5026106;28;20052;-80
2022/12/07 00:28:02;;;;;;;41.20;14.68;;;;;;;;;;5013236;28;20063;-79
2022/12/07 00:30:27;;;;;;;31.10;13.30;;;;;;;;;;5025991;28;20041;-80
2022/12/07 00:32:52;;;;;;;28.35;12.48;;;;;;;;;;5020344;28;20057;-79
2022/12/07 00:35:18;;;;;;;27.65;11.98;;;;;;;;;;5022561;28;20036;-80
2022/12/07 00:37:43;;;;;;;20.55;10.65;;;;;;;;;;5025388;28;20519;-79
2022/12/07 00:40:09;;;;;;;26.73;11.10;;;;;;;;;;5025065;28;20322;-79
2022/12/07 00:42:34;;;;;;;30.10;11.65;;;;;;;;;;5025417;28;20025;-79
2022/12/07 00:44:59;;;;;;;25.85;11.15;;;;;;;;;;5037418;28;20175;-79
2022/12/07 00:47:25;;;;;;;27.73;11.10;;;;;;;;;;5026975;28;20036;-79
2022/12/07 00:49:50;;;;;;;24.67;10.55;;;;;;;;;;5024572;28;20069;-79
2022/12/07 00:52:15;;;;;;;24.08;9.65;;;;;;;;;;5025914;28;20037;-79
2022/12/07 00:54:41;;;;;;;23.95;11.45;;;;;;;;;;5026922;28;20059;-79
2022/12/07 00:57:06;;;;;;;24.35;10.25;;;;;;;;;;5026456;28;20057;-79
2022/12/07 00:59:31;;;;;;;29.42;10.88;;;;;;;;;;5025912;28;20034;-79
2022/12/07 01:01:57;;;;;;;19.40;9.32;;;;;;;;;;5024920;28;20067;-79
2022/12/07 01:04:22;;;;;;;24.95;11.20;;;;;;;;;;5026937;28;20079;-79
2022/12/07 01:06:47;;;;;;;26.90;12.77;;;;;;;;;;5024810;28;20034;-79
2022/12/07 01:09:13;;;;;;;30.42;12.55;;;;;;;;;;5024960;28;20033;-79
2022/12/07 01:11:38;;;;;;;33.78;12.40;;;;;;;;;;5026304;28;20088;-79
2022/12/07 01:14:03;;;;;;;33.75;13.13;;;;;;;;;;5024214;28;20100;-79
2022/12/07 01:16:31;;;;;;;32.88;12.85;;;;;;;;;;5025912;28;20025;-79
2022/12/07 01:18:58;;;;;;;21.60;10.77;;;;;;;;;;5025802;28;20044;-79
2022/12/07 01:21:26;;;;;;;36.58;14.27;;;;;;;;;;5025952;28;20093;-79
2022/12/07 01:23:52;;;;;;;32.00;13.07;;;;;;;;;;5026045;28;20025;-79
2022/12/07 01:26:21;;;;;;;23.75;11.20;;;;;;;;;;5013089;28;20045;-79
2022/12/07 01:28:47;;;;;;;26.70;11.73;;;;;;;;;;5024488;28;20026;-79
2022/12/07 01:31:16;;;;;;;21.48;10.02;;;;;;;;;;5020092;28;20045;-79
2022/12/07 01:33:44;;;;;;;25.00;10.82;;;;;;;;;;5015581;28;20029;-79
2022/12/07 01:36:15;;;;;;;25.85;12.48;;;;;;;;;;5023906;28;20544;-79
2022/12/07 01:38:41;;;;;;;23.15;11.13;;;;;;;;;;5015235;28;20113;-79
2022/12/07 01:41:07;;;;;;;19.63;8.80;;;;;;;;;;5021964;28;20140;-79
2022/12/07 01:43:33;;;;;;;27.20;11.48;;;;;;;;;;5019542;28;20367;-79
2022/12/07 01:45:59;;;;;;;29.45;12.10;;;;;;;;;;5016957;28;20046;-80
2022/12/07 01:48:28;;;;;;;26.25;11.73;;;;;;;;;;5024615;28;20041;-79
2022/12/07 01:50:59;;;;;;;27.83;11.77;;;;;;;;;;5025412;28;20080;-79
2022/12/07 01:53:28;;;;;;;18.70;9.90;;;;;;;;;;5024258;28;20033;-79
2022/12/07 01:55:56;;;;;;;25.45;11.77;;;;;;;;;;5040383;28;20036;-79
2022/12/07 01:58:22;;;;;;;28.60;11.65;;;;;;;;;;5024713;28;20125;-79
2022/12/07 02:00:48;;;;;;;27.88;11.45;;;;;;;;;;5039121;28;20067;-79
2022/12/07 02:03:22;;;;;;;22.60;10.23;;;;;;;;;;5025938;28;20041;-79
2022/12/07 02:05:49;;;;;;;32.25;11.07;;;;;;;;;;5024865;28;20049;-80
2022/12/07 02:08:16;;;;;;;23.45;10.27;;;;;;;;;;5025632;28;20025;-80
2022/12/07 02:10:41;;;;;;;23.17;10.02;;;;;;;;;;5026530;28;20018;-80
2022/12/07 02:13:17;;;;;;;21.23;10.10;;;;;;;;;;5024449;28;20034;-80
2022/12/07 02:16:04;;;;;;;25.90;9.05;;;;;;;;;;5023489;28;20580;-80
2022/12/07 02:18:45;;;;;;;24.98;10.40;;;;;;;;;;5024954;28;20041;-80
2022/12/07 02:21:50;;;;;;;21.48;9.98;;;;;;;;;;5024182;28;20038;-79
2022/12/07 02:24:28;;;;;;;19.00;9.23;;;;;;;;;;5013666;28;20063;-79
2022/12/07 02:26:53;;;;;;;22.55;9.55;;;;;;;;;;5025776;28;20772;-79
2022/12/07 02:29:29;;;;;;;30.25;10.70;;;;;;;;;;5023336;28;20042;-79
2022/12/07 02:32:31;;;;;;;19.90;9.15;;;;;;;;;;5024495;28;20029;-79
2022/12/07 02:35:07;;;;;;;18.35;9.52;;;;;;;;;;5014916;28;20056;-80
2022/12/07 02:37:39;;;;;;;21.95;8.48;;;;;;;;;;5022227;28;20025;-79
2022/12/07 02:40:14;;;;;;;20.63;9.02;;;;;;;;;;5025233;28;20040;-79
2022/12/07 02:42:46;;;;;;;21.38;8.88;;;;;;;;;;5031692;28;20030;-80
2022/12/07 02:45:17;;;;;;;23.70;10.00;;;;;;;;;;5024483;28;20522;-79
2022/12/07 02:47:44;;;;;;;19.05;8.05;;;;;;;;;;5020426;28;20637;-79
2022/12/07 02:50:10;;;;;;;19.50;8.98;;;;;;;;;;5037003;28;20693;-79
2022/12/07 02:52:36;;;;;;;24.77;10.90;;;;;;;;;;5024386;28;20414;-79
2022/12/07 02:55:01;;;;;;;21.05;10.70;;;;;;;;;;5024009;28;20042;-80
2022/12/07 02:57:52;;;;;;;27.65;10.90;;;;;;;;;;5024059;28;20116;-79
2022/12/07 03:00:19;;;;;;;19.63;10.75;;;;;;;;;;5021316;28;20044;-79
2022/12/07 03:02:52;;;;;;;22.45;9.38;;;;;;;;;;5016655;28;20052;-79
2022/12/07 03:05:33;;;;;;;23.02;11.13;;;;;;;;;;5024226;28;20029;-79
2022/12/07 03:08:20;;;;;;;26.80;10.57;;;;;;;;;;5023729;28;20025;-79
2022/12/07 03:10:48;;;;;;;25.80;12.00;;;;;;;;;;5031483;28;20056;-78
2022/12/07 03:13:30;;;;;;;27.25;11.25;;;;;;;;;;5014133;28;20037;-79
2022/12/07 03:16:04;;;;;;;25.70;10.85;;;;;;;;;;5020989;28;20037;-79
2022/12/07 03:18:36;;;;;;;25.00;11.07;;;;;;;;;;5014516;28;20041;-79
2022/12/07 03:21:07;;;;;;;22.50;10.30;;;;;;;;;;5030663;28;20052;-80
2022/12/07 03:23:35;;;;;;;21.35;10.30;;;;;;;;;;5023619;28;20043;-79
2022/12/07 03:26:01;;;;;;;29.90;11.32;;;;;;;;;;5023928;28;20725;-79
2022/12/07 03:28:34;;;;;;;25.92;11.65;;;;;;;;;;5026027;28;20671;-80
2022/12/07 03:31:07;;;;;;;20.25;9.32;;;;;;;;;;5024893;28;20026;-80
2022/12/07 03:33:40;;;;;;;30.08;11.30;;;;;;;;;;5021573;28;20032;-79
2022/12/07 03:36:11;;;;;;;26.85;11.02;;;;;;;;;;5009407;28;20520;-79
2022/12/07 03:38:46;;;;;;;22.65;10.75;;;;;;;;;;5026892;28;20045;-79
2022/12/07 03:41:18;;;;;;;28.08;11.73;;;;;;;;;;5013655;28;20025;-79
2022/12/07 03:43:44;;;;;;;31.65;12.07;;;;;;;;;;5025226;28;20103;-80
2022/12/07 03:46:43;;;;;;;23.73;11.35;;;;;;;;;;5027902;28;20132;-79
2022/12/07 03:49:18;;;;;;;21.83;9.75;;;;;;;;;;5025558;28;20064;-80
2022/12/07 03:52:06;;;;;;;23.25;10.27;;;;;;;;;;5026007;28;20137;-80
2022/12/07 03:54:36;;;;;;;25.23;10.13;;;;;;;;;;5023998;28;20041;-79
2022/12/07 03:57:03;;;;;;;26.27;10.50;;;;;;;;;;5013326;28;20120;-80
2022/12/07 03:59:30;;;;;;;19.55;9.32;;;;;;;;;;5024754;28;20029;-80
2022/12/07 04:02:01;;;;;;;29.63;11.00;;;;;;;;;;5026879;28;20033;-79
2022/12/07 04:04:26;;;;;;;20.35;10.18;;;;;;;;;;5025257;28;20049;-79
2022/12/07 04:06:52;;;;;;;25.23;10.73;;;;;;;;;;5024340;28;20041;-80
2022/12/07 04:09:17;;;;;;;21.63;10.95;;;;;;;;;;5021440;28;20184;-80
2022/12/07 04:11:43;;;;;;;24.25;10.55;;;;;;;;;;5022461;28;20038;-80
2022/12/07 04:14:20;;;;;;;24.23;10.70;;;;;;;;;;5026189;28;20096;-81
2022/12/07 04:16:48;;;;;;;22.17;10.32;;;;;;;;;;5024610;28;20049;-80
2022/12/07 04:19:15;;;;;;;26.27;9.82;;;;;;;;;;5022160;28;20484;-80
2022/12/07 04:21:40;;;;;;;19.15;8.80;;;;;;;;;;5012713;28;20116;-80
2022/12/07 04:24:06;;;;;;;19.77;8.55;;;;;;;;;;5024779;28;20129;-79
2022/12/07 04:26:31;;;;;;;22.73;9.63;;;;;;;;;;5024063;28;20030;-80
2022/12/07 04:28:57;;;;;;;16.23;8.98;;;;;;;;;;5022945;28;20026;-78
2022/12/07 04:31:22;;;;;;;22.17;9.75;;;;;;;;;;5020221;28;20025;-80
2022/12/07 04:33:47;;;;;;;21.20;9.82;;;;;;;;;;5024269;28;20507;-80
2022/12/07 04:36:12;;;;;;;21.05;10.73;;;;;;;;;;5025722;28;20462;-79
2022/12/07 04:38:38;;;;;;;20.63;9.60;;;;;;;;;;5022856;28;20038;-79
2022/12/07 04:41:07;;;;;;;24.13;10.10;;;;;;;;;;5022268;28;20411;-79
2022/12/07 04:43:33;;;;;;;21.70;10.35;;;;;;;;;;5025655;28;20025;-80
2022/12/07 04:45:58;;;;;;;22.67;9.65;;;;;;;;;;5023313;28;20086;-80
2022/12/07 04:48:24;;;;;;;17.50;9.05;;;;;;;;;;5021175;28;20084;-80
2022/12/07 04:50:49;;;;;;;22.17;9.02;;;;;;;;;;5032399;28;20051;-80
2022/12/07 04:53:15;;;;;;;23.55;9.50;;;;;;;;;;5026417;28;20025;-80
2022/12/07 04:55:41;;;;;;;20.60;8.70;;;;;;;;;;5025459;28;20028;-79
2022/12/07 04:58:06;;;;;;;17.63;8.45;;;;;;;;;;5012605;28;20068;-80
2022/12/07 05:00:31;;;;;;;22.50;8.77;;;;;;;;;;5014394;28;20030;-80
2022/12/07 05:02:57;;;;;;;22.13;9.43;;;;;;;;;;5019199;28;20045;-80
2022/12/07 05:05:22;;;;;;;21.20;9.05;;;;;;;;;;5015056;28;20053;-80
2022/12/07 05:07:47;;;;;;;16.67;8.43;;;;;;;;;;5029647;28;20021;-80
2022/12/07 05:10:13;;;;;;;19.42;9.20;;;;;;;;;;5027796;28;20099;-80
2022/12/07 05:12:38;;;;;;;21.70;8.88;;;;;;;;;;5026927;28;20531;-80
2022/12/07 05:15:04;;;;;;;17.17;8.80;;;;;;;;;;5029228;28;20033;-80
2022/12/07 05:17:29;;;;;;;22.30;9.77;;;;;;;;;;5026956;28;20040;-79
2022/12/07 05:19:55;;;;;;;19.25;9.20;;;;;;;;;;5026176;28;20026;-80
2022/12/07 05:22:21;;;;;;;18.80;8.77;;;;;;;;;;5028051;28;20029;-80
2022/12/07 05:24:46;;;;;;;18.23;7.85;;;;;;;;;;5028816;28;20045;-80
2022/12/07 05:27:11;;;;;;;21.13;9.10;;;;;;;;;;5027703;28;20041;-80
2022/12/07 05:29:37;;;;;;;17.63;8.18;;;;;;;;;;5027566;28;20045;-80
2022/12/07 05:32:02;;;;;;;19.70;8.23;;;;;;;;;;5027602;28;20124;-80
2022/12/07 05:34:27;;;;;;;22.40;8.35;;;;;;;;;;5028295;28;20017;-80
2022/12/07 05:36:53;;;;;;;16.85;7.95;;;;;;;;;;5026244;28;20029;-80
2022/12/07 05:39:18;;;;;;;20.48;8.38;;;;;;;;;;5026995;28;20064;-80
2022/12/07 05:44:27;;;;;;;19.80;7.47;;;;;;;;;;5027980;28;20697;-80
2022/12/07 05:46:52;;;;;;;21.80;9.05;;;;;;;;;;5026884;28;20025;-80
2022/12/07 05:49:18;;;;;;;20.25;9.05;;;;;;;;;;5026893;28;20095;-80
2022/12/07 05:51:43;;;;;;;14.23;7.28;;;;;;;;;;5026294;28;20043;-80
2022/12/07 05:54:08;;;;;;;19.45;8.05;;;;;;;;;;5022036;28;20036;-80
2022/12/07 05:56:34;;;;;;;16.73;8.40;;;;;;;;;;5024115;28;20057;-80
2022/12/07 06:01:43;;;;;;;18.63;8.38;;;;;;;;;;5028331;28;20171;-80
2022/12/07 06:04:08;;;;;;;18.90;8.82;;;;;;;;;;5025727;28;20097;-78
2022/12/07 06:06:34;;;;;;;21.95;8.52;;;;;;;;;;5021816;28;20080;-80
2022/12/07 06:08:59;;;;;;;13.70;7.38;;;;;;;;;;5026123;28;20052;-80
2022/12/07 06:14:09;;;;;;;16.10;8.15;;;;;;;;;;5027647;28;20172;-80
2022/12/07 06:16:34;;;;;;;21.90;8.18;;;;;;;;;;5026959;28;20104;-80
2022/12/07 06:19:00;;;;;;;20.80;8.63;;;;;;;;;;5017305;28;20097;-80
2022/12/07 06:21:28;;;;;;;21.70;8.77;;;;;;;;;;5035207;28;20056;-79
2022/12/07 06:23:53;;;;;;;23.40;9.23;;;;;;;;;;5028065;28;20060;-79
2022/12/07 06:26:19;;;;;;;19.75;8.70;;;;;;;;;;5027188;28;20534;-80
2022/12/07 06:28:44;;;;;;;22.08;9.85;;;;;;;;;;5023998;28;20026;-79
2022/12/07 06:31:09;;;;;;;19.25;9.02;;;;;;;;;;5018843;28;20148;-80
2022/12/07 06:33:35;;;;;;;17.17;8.18;;;;;;;;;;5026140;28;20128;-80
2022/12/07 06:36:00;;;;;;;19.13;8.80;;;;;;;;;;5026217;28;20515;-80
2022/12/07 06:38:25;;;;;;;18.58;7.78;;;;;;;;;;5025266;28;20044;-79
2022/12/07 06:40:50;;;;;;;22.13;8.40;;;;;;;;;;5027364;28;20018;-79
2022/12/07 06:43:16;;;;;;;20.00;7.43;;;;;;;;;;5022055;28;20519;-79
2022/12/07 06:45:41;;;;;;;17.17;7.57;;;;;;;;;;5025396;28;20032;-80
2022/12/07 06:48:07;;;;;;;17.95;8.00;;;;;;;;;;5026109;28;20470;-79
2022/12/07 06:50:32;;;;;;;24.27;9.50;;;;;;;;;;5025749;28;20094;-80
2022/12/07 06:52:57;;;;;;;20.15;8.73;;;;;;;;;;5026599;28;20502;-80
2022/12/07 06:55:23;;;;;;;20.17;9.18;;;;;;;;;;5025077;28;20070;-80
2022/12/07 06:57:48;;;;;;;21.15;8.70;;;;;;;;;;5026841;28;20030;-80
2022/12/07 07:00:14;;;;;;;21.75;8.68;;;;;;;;;;5027453;28;20137;-80
2022/12/07 07:02:39;;;;;;;22.42;8.55;;;;;;;;;;5020611;28;20040;-80
2022/12/07 07:05:05;;;;;;;21.55;8.02;;;;;;;;;;5021180;28;20049;-79
2022/12/07 07:07:30;;;;;;;15.02;7.50;;;;;;;;;;5027274;28;20029;-80
2022/12/07 07:09:55;;;;;;;18.75;7.63;;;;;;;;;;5026617;28;20081;-79
2022/12/07 07:12:21;;;;;;;21.17;8.05;;;;;;;;;;5026666;28;20037;-79
2022/12/07 07:14:46;;;;;;;28.23;9.30;;;;;;;;;;5025868;28;20072;-80
2022/12/07 07:17:12;;;;;;;16.85;7.63;;;;;;;;;;5024297;28;20042;-80
2022/12/07 07:19:38;;;;;;;14.95;7.63;;;;;;;;;;5025605;28;20036;-80
2022/12/07 07:22:03;;;;;;;15.55;7.45;;;;;;;;;;5023629;28;20056;-79
2022/12/07 07:24:29;;;;;;;25.17;7.90;;;;;;;;;;5026530;28;20037;-79
2022/12/07 07:26:54;;;;;;;15.98;7.60;;;;;;;;;;5025425;28;21673;-80
2022/12/07 07:29:20;;;;;;;15.25;7.22;;;;;;;;;;5025409;28;20110;-80
2022/12/07 07:31:45;;;;;;;16.50;7.47;;;;;;;;;;5026484;28;20030;-80
2022/12/07 07:34:10;;;;;;;16.27;7.47;;;;;;;;;;5024798;28;20041;-79
2022/12/07 07:36:36;;;;;;;21.95;8.57;;;;;;;;;;5023956;28;20044;-80
2022/12/07 07:39:01;;;;;;;18.83;9.13;;;;;;;;;;5017877;28;20030;-80
2022/12/07 07:41:26;;;;;;;22.17;9.45;;;;;;;;;;5016549;28;20048;-80
2022/12/07 07:43:52;;;;;;;23.05;8.93;;;;;;;;;;5034565;28;20124;-80
2022/12/07 07:46:17;;;;;;;24.90;9.32;;;;;;;;;;5025958;28;20044;-80
2022/12/07 07:48:42;;;;;;;20.80;8.77;;;;;;;;;;5023880;28;20574;-80
2022/12/07 07:51:13;;;;;;;20.58;8.45;;;;;;;;;;5013104;28;20038;-80
2022/12/07 07:53:38;;;;;;;18.42;7.78;;;;;;;;;;5020225;28;20060;-80
2022/12/07 07:56:04;;;;;;;16.67;7.55;;;;;;;;;;5021326;28;20029;-80
2022/12/07 07:58:29;;;;;;;18.85;8.13;;;;;;;;;;5021570;28;20132;-80
2022/12/07 08:00:54;;;;;;;20.52;8.07;;;;;;;;;;5013584;28;20398;-80
2022/12/07 08:03:22;;;;;;;17.20;8.25;;;;;;;;;;5020014;28;20064;-80
2022/12/07 08:05:48;;;;;;;17.80;8.73;;;;;;;;;;5018367;28;20033;-80
2022/12/07 08:08:13;;;;;;;17.60;7.95;;;;;;;;;;5021687;28;20033;-80
2022/12/07 08:10:38;;;;;;;20.83;8.70;;;;;;;;;;5019003;28;20041;-81
2022/12/07 08:13:13;;;;;;;23.98;8.65;;;;;;;;;;5023408;28;20453;-81
2022/12/07 08:15:48;;;;;;;17.40;7.78;;;;;;;;;;5017714;28;20399;-78
2022/12/07 08:18:14;;;;;;;17.42;7.70;;;;;;;;;;5015329;28;20038;-78
2022/12/07 08:20:41;;;;;;;17.88;8.15;;;;;;;;;;5039947;28;20033;-78
2022/12/07 08:23:07;;;;;;;18.85;8.07;;;;;;;;;;5025380;28;20124;-77
2022/12/07 08:25:33;;;;;;;18.65;8.13;;;;;;;;;;5024524;28;20022;-78
2022/12/07 08:28:00;;;;;;;19.55;9.32;;;;;;;;;;5025841;28;20053;-78
2022/12/07 08:30:26;;;;;;;30.35;8.00;;;;;;;;;;5040992;28;20030;-77
2022/12/07 08:32:51;;;;;;;17.60;8.38;;;;;;;;;;5024655;28;20102;-78
2022/12/07 08:35:16;;;;;;;15.23;7.43;;;;;;;;;;5021068;28;20034;-77
2022/12/07 08:37:42;;;;;;;20.77;7.70;;;;;;;;;;5019805;28;20462;-78
2022/12/07 08:40:09;;;;;;;21.35;7.30;;;;;;;;;;5024092;28;20120;-78
2022/12/07 08:42:39;;;;;;;18.08;8.27;;;;;;;;;;5024711;28;20057;-77
2022/12/07 08:45:07;;;;;;;15.95;7.05;;;;;;;;;;5023096;28;20041;-77
2022/12/07 08:47:37;;;;;;;17.27;7.53;;;;;;;;;;5027868;28;20029;-80
2022/12/07 08:50:05;;;;;;;24.98;8.70;;;;;;;;;;5039311;28;20535;-78
2022/12/07 08:52:31;;;;;;;24.20;8.77;;;;;;;;;;5021078;28;20029;-78
2022/12/07 08:54:58;;;;;;;21.08;9.25;;;;;;;;;;5022150;28;20111;-79
2022/12/07 08:57:23;;;;;;;25.23;9.13;;;;;;;;;;5025039;28;20038;-78
2022/12/07 08:59:48;;;;;;;22.23;8.98;;;;;;;;;;5024152;28;20430;-78
2022/12/07 09:02:14;;;;;;;24.08;7.95;;;;;;;;;;5020028;28;20040;-78
2022/12/07 09:04:39;;;;;;;21.30;9.45;;;;;;;;;;5027230;28;20429;-78
2022/12/07 09:07:05;;;;;;;21.33;8.60;;;;;;;;;;5026630;28;20676;-79
2022/12/07 09:09:31;;;;;;;28.05;10.20;;;;;;;;;;5025731;28;20649;-76
2022/12/07 09:11:56;;;;;;;22.13;9.48;;;;;;;;;;5001662;28;20037;-78
2022/12/07 09:14:22;;;;;;;20.40;9.73;;;;;;;;;;5018764;28;20069;-82
2022/12/07 09:16:47;;;;;;;22.02;8.75;;;;;;;;;;5023764;28;20058;-79
2022/12/07 09:19:13;;;;;;;18.92;7.82;;;;;;;;;;5027353;28;20116;-79
2022/12/07 09:21:38;;;;;;;20.00;7.32;;;;;;;;;;5040692;28;20040;-80
2022/12/07 09:24:04;;;;;;;19.95;7.60;;;;;;;;;;5042462;28;20056;-79
2022/12/07 09:26:29;;;;;;;19.98;7.38;;;;;;;;;;5042283;28;20533;-79
2022/12/07 09:28:54;;;;;;;16.00;7.20;;;;;;;;;;5027317;28;20022;-78
2022/12/07 09:31:20;;;;;;;18.45;7.57;;;;;;;;;;5036254;28;20033;-78
2022/12/07 09:33:45;;;;;;;19.13;7.78;;;;;;;;;;5023933;28;20037;-79
2022/12/07 09:36:10;;;;;;;20.23;6.80;;;;;;;;;;5026767;28;20487;-78
2022/12/07 09:38:36;;;;;;;13.45;6.93;;;;;;;;;;5025731;28;20465;-78
2022/12/07 09:41:07;;;;;;;21.40;7.18;;;;;;;;;;5025544;28;20029;-78
2022/12/07 09:43:35;;;;;;;12.70;5.50;;;;;;;;;;5027108;28;20398;-79
2022/12/07 09:46:00;;;;;;;17.77;6.28;;;;;;;;;;5025242;28;20470;-79
2022/12/07 09:48:31;;;;;;;17.40;5.68;;;;;;;;;;5022940;28;20117;-81
2022/12/07 09:50:59;;;;;;;16.10;5.75;;;;;;;;;;5021203;28;20038;-77
2022/12/07 09:53:33;;;;;;;15.38;6.50;;;;;;;;;;5019284;28;20040;-80
2022/12/07 09:55:59;;;;;;;14.38;6.20;;;;;;;;;;5020971;28;20017;-79
2022/12/07 09:58:26;;;;;;;17.27;6.93;;;;;;;;;;5022102;28;20052;-82
2022/12/07 10:00:57;;;;;;;16.35;6.03;;;;;;;;;;5018221;28;20058;-80
2022/12/07 10:03:22;;;;;;;10.52;5.70;;;;;;;;;;5036626;28;20050;-80
2022/12/07 10:05:50;;;;;;;13.32;4.90;;;;;;;;;;5017313;28;20025;-80
2022/12/07 10:08:17;;;;;;;16.42;7.68;;;;;;;;;;5022357;28;20414;-80
2022/12/07 10:10:43;;;;;;;13.82;5.65;;;;;;;;;;5026390;28;20380;-79
2022/12/07 10:13:12;;;;;;;15.00;6.18;;;;;;;;;;5025881;28;20511;-79
2022/12/07 10:15:49;;;;;;;13.20;6.00;;;;;;;;;;5037517;28;20443;-79
2022/12/07 10:18:41;;;;;;;14.82;5.13;;;;;;;;;;5020291;28;20029;-80
2022/12/07 10:21:25;;;;;;;13.45;6.25;;;;;;;;;;5019849;28;20068;-80
2022/12/07 10:24:19;;;;;;;16.80;5.70;;;;;;;;;;5041202;28;20026;-79
2022/12/07 10:26:47;;;;;;;;;;;;;;;;;;5025946;28;20030;-79
2022/12/07 10:29:30;;;;;;;14.93;5.35;;;;;;;;;;5040291;28;19909;-79
2022/12/07 10:32:00;;;;;;;7.55;4.72;;;;;;;;;;5025940;28;20034;-81
2022/12/07 10:34:28;;;;;;;13.57;5.53;;;;;;;;;;5024264;28;20499;-79
2022/12/07 10:37:27;;;;;;;15.52;5.75;;;;;;;;;;5025740;28;20034;-82
2022/12/07 10:39:57;;;;;;;14.50;5.40;;;;;;;;;;5023137;28;20033;-80
2022/12/07 10:42:26;;;;;;;12.07;5.57;;;;;;;;;;5021618;28;20038;-81
2022/12/07 10:45:15;;;;;;;11.63;4.47;;;;;;;;;;5021843;28;20522;-82
2022/12/07 10:47:51;;;;;;;18.25;5.60;;;;;;;;;;5039779;28;20040;-79
2022/12/07 10:50:35;;;;;;;11.48;4.72;;;;;;;;;;5024931;28;20041;-79
2022/12/07 10:53:15;;;;;;;11.80;5.00;;;;;;;;;;5023872;28;20141;-79
2022/12/07 10:56:05;;;;;;;10.35;4.15;;;;;;;;;;5024319;28;20093;-79
2022/12/07 10:59:16;;;;;;;9.23;4.10;;;;;;;;;;5020857;28;20087;-80
2022/12/07 11:02:02;;;;;;;6.72;3.33;;;;;;;;;;5023050;28;20045;-80
2022/12/07 11:04:41;;;;;;;8.80;4.03;;;;;;;;;;5009013;28;20053;-80
2022/12/07 11:07:49;;;;;;;10.38;3.83;;;;;;;;;;5024896;28;20029;-79
2022/12/07 11:10:21;;;;;;;9.50;4.22;;;;;;;;;;5019029;28;20652;-80
2022/12/07 11:12:51;;;;;;;12.98;4.68;;;;;;;;;;5025075;28;20041;-80
2022/12/07 11:15:25;;;;;;;9.38;4.22;;;;;;;;;;5019808;28;20514;-79
2022/12/07 11:18:06;;;;;;;5.65;2.97;;;;;;;;;;5022411;28;20084;-80
2022/12/07 11:20:40;;;;;;;12.88;4.10;;;;;;;;;;5025945;28;20116;-80
2022/12/07 11:23:27;;;;;;;8.75;3.55;;;;;;;;;;5024895;28;20103;-81
2022/12/07 11:26:12;;;;;;;7.85;3.20;;;;;;;;;;5022333;28;20054;-80
2022/12/07 11:28:56;;;;;;;8.73;3.42;;;;;;;;;;5018395;28;20429;-80
2022/12/07 11:31:30;;;;;;;6.18;2.00;;;;;;;;;;5016603;28;20039;-80
2022/12/07 11:34:02;;;;;;;5.15;3.05;;;;;;;;;;5018475;28;20037;-80
2022/12/07 11:36:40;;;;;;;11.07;3.35;;;;;;;;;;5023831;28;20037;-80
2022/12/07 11:39:20;;;;;;;9.05;3.78;;;;;;;;;;5024473;28;20041;-80
2022/12/07 11:41:48;;;;;;;10.38;4.05;;;;;;;;;;5024967;28;20083;-80
2022/12/07 11:44:36;;;;;;;10.77;3.72;;;;;;;;;;5012365;28;20021;-80
2022/12/07 11:47:11;;;;;;;7.70;4.20;;;;;;;;;;5016263;28;20057;-80
2022/12/07 11:49:36;;;;;;;7.13;3.85;;;;;;;;;;5019649;28;20084;-80
2022/12/07 11:52:03;;;;;;;8.63;5.07;;;;;;;;;;5019171;28;20578;-80
2022/12/07 11:54:34;;;;;;;9.38;4.22;;;;;;;;;;5021135;28;20120;-80
2022/12/07 11:57:04;;;;;;;5.05;3.33;;;;;;;;;;5023423;28;20032;-81
2022/12/07 11:59:39;;;;;;;10.18;4.15;;;;;;;;;;5024076;28;20111;-80
2022/12/07 12:02:14;;;;;;;8.95;4.30;;;;;;;;;;5018118;28;20029;-80
2022/12/07 12:05:05;;;;;;;11.23;4.43;;;;;;;;;;5038122;28;20116;-80
2022/12/07 12:07:31;;;;;;;9.18;3.53;;;;;;;;;;5023886;28;20041;-80
2022/12/07 12:10:00;;;;;;;5.93;3.60;;;;;;;;;;5022341;28;20094;-80
2022/12/07 12:12:48;;;;;;;9.52;4.78;;;;;;;;;;5023520;28;20576;-80
2022/12/07 12:15:42;;;;;;;7.45;4.00;;;;;;;;;;5025190;28;20046;-80
2022/12/07 12:18:22;;;;;;;8.55;3.38;;;;;;;;;;5027379;28;20419;-80
2022/12/07 12:20:56;;;;;;;8.35;3.42;;;;;;;;;;5028491;28;20245;-80
2022/12/07 12:23:35;;;;;;;12.65;4.20;;;;;;;;;;5027463;28;20539;-80
2022/12/07 12:26:07;;;;;;;9.48;4.82;;;;;;;;;;5030075;28;20104;-80
2022/12/07 12:29:00;;;;;;;5.03;3.33;;;;;;;;;;5023223;28;20021;-80
2022/12/07 12:31:28;;;;;;;10.77;3.88;;;;;;;;;;5037878;28;20480;-80
2022/12/07 12:34:00;;;;;;;7.85;3.17;;;;;;;;;;5025063;28;20431;-80
2022/12/07 12:36:25;;;;;;;8.23;3.47;;;;;;;;;;5028248;28;20038;-80
2022/12/07 12:39:14;;;;;;;7.40;3.72;;;;;;;;;;5027888;28;20136;-80
2022/12/07 12:44:14;;;;;;;9.18;4.43;;;;;;;;;;5030390;28;20044;-80
2022/12/07 12:46:45;;;;;;;8.57;4.28;;;;;;;;;;5028155;28;20029;-80
2022/12/07 12:49:32;;;;;;;12.63;4.55;;;;;;;;;;5030285;28;20076;-80
2022/12/07 12:51:59;;;;;;;10.18;4.82;;;;;;;;;;5031201;28;20046;-80
2022/12/07 12:54:31;;;;;;;11.77;4.65;;;;;;;;;;5024770;28;20439;-80
2022/12/07 12:57:13;;;;;;;11.27;4.72;;;;;;;;;;5025562;28;20454;-80
2022/12/07 12:59:50;;;;;;;6.22;4.15;;;;;;;;;;5030123;28;20070;-80
2022/12/07 13:02:26;;;;;;;9.60;4.25;;;;;;;;;;5030091;28;20075;-80
2022/12/07 13:04:54;;;;;;;7.10;3.88;;;;;;;;;;5018017;28;20040;-80
2022/12/07 13:07:52;;;;;;;7.03;3.95;;;;;;;;;;5031236;28;20033;-80
2022/12/07 13:10:24;;;;;;;9.88;2.90;;;;;;;;;;5024254;28;20033;-80
2022/12/07 13:13:31;;;;;;;5.47;2.47;;;;;;;;;;5030045;28;20601;-80
2022/12/07 13:16:08;;;;;;;4.07;2.28;;;;;;;;;;5021959;28;20526;-80
2022/12/07 13:18:34;;;;;;;5.05;2.30;;;;;;;;;;5030025;28;20080;-79
2022/12/07 13:21:08;;;;;;;3.90;2.22;;;;;;;;;;5031338;28;20029;-80
2022/12/07 13:23:43;;;;;;;4.35;2.22;;;;;;;;;;5027015;28;20108;-82
2022/12/07 13:26:29;;;;;;;4.57;2.15;;;;;;;;;;5026954;28;20044;-80
2022/12/07 13:29:20;;;;;;;4.15;2.33;;;;;;;;;;5027799;28;20024;-84
2022/12/07 13:31:49;;;;;;;5.35;2.17;;;;;;;;;;5014341;28;20514;-80
2022/12/07 13:34:28;;;;;;;4.25;2.42;;;;;;;;;;5025741;28;20083;-81
2022/12/07 13:36:53;;;;;;;6.03;2.72;;;;;;;;;;5027313;28;20566;-80
2022/12/07 13:39:22;;;;;;;5.03;2.47;;;;;;;;;;5012084;28;20033;-80
2022/12/07 13:42:24;;;;;;;7.05;2.85;;;;;;;;;;5019860;28;20065;-81
2022/12/07 13:44:50;;;;;;;4.80;2.22;;;;;;;;;;5025608;28;20037;-82
2022/12/07 13:47:41;;;;;;;6.13;2.65;;;;;;;;;;5026880;28;20021;-82
2022/12/07 13:50:28;;;;;;;5.88;2.40;;;;;;;;;;5014141;28;20133;-80
2022/12/07 13:53:01;;;;;;;10.88;3.03;;;;;;;;;;5024813;28;20641;-81
2022/12/07 13:55:30;;;;;;;6.65;2.80;;;;;;;;;;5027851;28;20037;-81
2022/12/07 13:57:56;;;;;;;6.00;2.45;;;;;;;;;;5021659;28;20040;-81
2022/12/07 14:00:24;;;;;;;6.75;2.50;;;;;;;;;;5032437;28;20501;-82
2022/12/07 14:03:26;;;;;;;5.40;3.17;;;;;;;;;;5024471;28;20068;-79
2022/12/07 14:06:19;;;;;;;5.05;2.92;;;;;;;;;;5019097;28;20091;-81
2022/12/07 14:08:45;;;;;;;7.40;2.60;;;;;;;;;;5018916;28;20167;-82
2022/12/07 14:11:17;;;;;;;4.82;2.72;;;;;;;;;;5026677;28;20096;-82
2022/12/07 14:13:48;;;;;;;6.65;3.10;;;;;;;;;;5027376;28;20032;-82
2022/12/07 14:16:19;;;;;;;6.50;2.72;;;;;;;;;;5018731;28;20041;-81
2022/12/07 14:18:45;;;;;;;7.97;2.88;;;;;;;;;;5018312;28;20037;-81
2022/12/07 14:21:10;;;;;;;4.60;2.35;;;;;;;;;;5024025;28;20525;-81
2022/12/07 14:23:37;;;;;;;6.82;2.45;;;;;;;;;;5024143;28;20041;-81
2022/12/07 14:26:14;;;;;;;5.88;2.42;;;;;;;;;;5025420;28;20037;-81
2022/12/07 14:28:42;;;;;;;5.25;2.83;;;;;;;;;;5026447;28;20068;-82
2022/12/07 14:31:21;;;;;;;6.75;2.58;;;;;;;;;;5024102;28;20045;-81
2022/12/07 14:33:46;;;;;;;6.43;2.47;;;;;;;;;;5019320;28;20030;-81
2022/12/07 14:36:13;;;;;;;6.70;2.17;;;;;;;;;;5024035;28;20080;-81
2022/12/07 14:38:39;;;;;;;8.75;2.13;;;;;;;;;;5020421;28;20033;-81
2022/12/07 14:43:56;;;;;;;3.53;2.03;;;;;;;;;;5027014;28;20032;-81
2022/12/07 14:46:21;;;;;;;4.32;2.08;;;;;;;;;;5025268;28;20037;-81
2022/12/07 14:48:46;;;;;;;5.88;2.50;;;;;;;;;;5026001;28;20452;-81
2022/12/07 14:51:12;;;;;;;5.32;2.90;;;;;;;;;;5012783;28;20075;-81
2022/12/07 14:53:42;;;;;;;5.90;2.83;;;;;;;;;;5023311;28;20061;-81
2022/12/07 14:56:08;;;;;;;4.90;2.50;;;;;;;;;;5023505;28;20033;-81
2022/12/07 14:58:33;;;;;;;8.27;2.38;;;;;;;;;;5026516;28;20071;-81
2022/12/07 15:00:59;;;;;;;3.13;1.77;;;;;;;;;;5025231;28;20028;-81
2022/12/07 15:03:24;;;;;;;3.58;2.17;;;;;;;;;;5026374;28;20033;-81